KPWA/PWA METAR and TAF weather

Enter ICAO airport designator
Station Type Date Time Source
KPWA METAR 2019/10/21 02:14 UTC NOAA

KPWA 210214Z 27015G31KT 6SM +TSRA SCT037 BKN055 OVC110 21/17 A2956 RMK AO2 PK WND 24032/0204 LTG DSNT ALQDS P0016 T02110172


Station Type Date Time Source
KPWA Decoded METAR 2019/10/21 02:14 UTC NOAA

WILEY POST, OK, United States (KPWA) 35-32N 97-39W 397M
Oct 20, 2019 - 10:14 PM EDT / 2019.10.21 0214 UTC
Wind: from the W (270 degrees) at 17 MPH (15 KT) gusting to 36 MPH (31 KT):0
Visibility: 6 mile(s):0
Sky conditions: overcast
Weather: heavy rain with thunder; Lightning observed
Precipitation last hour: 0.16 inches
Temperature: 70.0 F (21.1 C)
Dew Point: 63.0 F (17.2 C)
Relative Humidity: 78%
Pressure (altimeter): 29.56 in. Hg (1001 hPa)
ob: KPWA 210214Z 27015G31KT 6SM +TSRA SCT037 BKN055 OVC110 21/17 A2956 RMK AO2 PK WND 24032/0204 LTG DSNT ALQDS P0016 T02110172
cycle: 2

Station Type Date Time Source
KPWA TAF UTC NOAA

Error!

Example: see airport list